WetterOnline ( https://www.wetteronline.de )

Wetter aktuell Rhön (in 800m)

Aktuelles Wetter: Wasserkuppe (925m)

6-stündlich | Neueste Meldungen
Ortszeit Temperatur Wetter
Di, 22.10. 2:00 8.1° C wolkig
Mo, 21.10. 20:00 10.2° C bewölkt
Mo, 21.10. 14:00 13.4° C wolkig
Mo, 21.10. 8:00 11.7° C bedeckt
Mo, 21.10. 2:00 12.8° C bewölkt
So, 20.10. 20:00 12.4° C bedeckt
So, 20.10. 14:00 14.4° C bewölkt
So, 20.10. 8:00 10.0° C bedeckt
Ortszeit Temperatur Wetter
Di, 22.10. 2:30 8.5° C Nebel
Di, 22.10. 2:20 8.5° C Nebel
Di, 22.10. 2:10 8.4° C Sprühregen
Di, 22.10. 2:00 8.1° C wolkig
Di, 22.10. 1:40 8.0° C wolkig
Di, 22.10. 1:30 8.3° C wolkig
Di, 22.10. 1:00 8.4° C bewölkt
Di, 22.10. 0:30 8.7° C bedeckt
Di, 22.10. 0:00 8.9° C bedeckt
Mo, 21.10. 23:30 9.1° C bedeckt
Ortszeit Relative Feuchte Sichtweite
Di, 22.10. 2:00 99% 8 km
Mo, 21.10. 20:00 87% 55 km
Mo, 21.10. 14:00 83% 55 km
Mo, 21.10. 8:00 82% 60 km
Mo, 21.10. 2:00 78% 40 km
So, 20.10. 20:00 80% 45 km
So, 20.10. 14:00 70% 60 km
So, 20.10. 8:00 100% 50 km
Ortszeit Relative Feuchte Sichtweite
Di, 22.10. 2:30 100% 100 m
Di, 22.10. 2:20 100% -
Di, 22.10. 2:10 100% -
Di, 22.10. 2:00 99% 8 km
Di, 22.10. 1:40 99% -
Di, 22.10. 1:30 99% 6 km
Di, 22.10. 1:00 97% 15 km
Di, 22.10. 0:30 96% 18 km
Di, 22.10. 0:00 93% 40 km
Mo, 21.10. 23:30 92% 55 km
Ortszeit Niederschlagsmenge Niederschlagsart
Di, 22.10. 2:00 0.1 l/m2 in 6 Std. Regen
Mo, 21.10. 20:00 0.1 l/m2 in 12 Std. -
Mo, 21.10. 14:00 0.1 l/m2 in 6 Std. Regen
Mo, 21.10. 8:00 0.0 l/m2 in 12 Std. -
Mo, 21.10. 2:00 0.0 l/m2 in 6 Std. -
So, 20.10. 20:00 0.1 l/m2 in 12 Std. -
So, 20.10. 14:00 0.1 l/m2 in 6 Std. Regenschauer
So, 20.10. 8:00 0.7 l/m2 in 12 Std. Regenschauer
Ortszeit Niederschlagsmenge Niederschlagsart
Di, 22.10. 2:30 0.1 l/m2 in 1 Std. -
Di, 22.10. 2:20 keine Meldung -
Di, 22.10. 2:10 keine Meldung -
Di, 22.10. 2:00 0.0 l/m2 in 1 Std. Regen
Di, 22.10. 1:40 keine Meldung -
Di, 22.10. 1:30 0.0 l/m2 in 1 Std. -
Di, 22.10. 1:00 0.1 l/m2 in 1 Std. Regen
Di, 22.10. 0:30 0.1 l/m2 in 1 Std. Schneeregen
Di, 22.10. 0:00 0.1 l/m2 in 1 Std. Regen
Mo, 21.10. 23:30 0.0 l/m2 in 1 Std. -
Ortszeit Stärke Spitze Richtung
km/h Bft. km/h Grad Sektor
Di, 22.10. 2:00 20 4 31 250° W
Mo, 21.10. 20:00 22 4 30 210° SW
Mo, 21.10. 14:00 22 4 48 250° W
Mo, 21.10. 8:00 30 5 48 230° SW
Mo, 21.10. 2:00 24 4 31 240° SW
So, 20.10. 20:00 14 3 43 180° S
So, 20.10. 14:00 22 4 50 160° S
So, 20.10. 8:00 36 5 65 210° SW
Ortszeit Stärke Spitze Richtung
km/h Bft. km/h Grad Sektor
Di, 22.10. 2:30 18 3 25 250° W
Di, 22.10. 2:20 18 3 - 250° W
Di, 22.10. 2:10 20 4 - 250° W
Di, 22.10. 2:00 20 4 24 250° W
Di, 22.10. 1:40 20 4 - 240° SW
Di, 22.10. 1:30 18 3 25 240° SW
Di, 22.10. 1:00 18 3 25 240° SW
Di, 22.10. 0:30 18 3 25 250° W
Di, 22.10. 0:00 18 3 29 250° W
Mo, 21.10. 23:30 22 4 28 240° SW
Ortszeit Untergrenze Bedeckung Gattung
total tief tief mittel hoch
Di, 22.10. 2:00 3300 m 7/8 3/8 - - -
Mo, 21.10. 20:00 30 m 8/8 4/8 - - -
Mo, 21.10. 14:00 2400 m 7/8 3/8 - - -
Mo, 21.10. 8:00 3300 m 8/8 8/8 - - -
Mo, 21.10. 2:00 3300 m 7/8 7/8 - - -
So, 20.10. 20:00 3600 m 8/8 8/8 - - -
So, 20.10. 14:00 780 m 7/8 2/8 Sc As -
So, 20.10. 8:00 30 m 8/8 5/8 Cu As Ci
Ortszeit Bedeckungsgrad in Achtel und Wolkenuntergrenze
Di, 22.10. 2:30 6(<30m) 7(2400m) 7(3300m)
Di, 22.10. 2:20 6(<30m) 7(2400m) 7(3300m)
Di, 22.10. 2:10 3(<30m) 6(3300m) 7(9000m)
Di, 22.10. 2:00 3(3300m) 7(9000m) 7(9000m)
Di, 22.10. 1:40 1(<30m) 7(3300m) 7(9000m)
Di, 22.10. 1:30 1(<30m) 6(3300m) 7(9000m)
Di, 22.10. 1:00 5(1800m) 7(2400m) 7(9000m)
Di, 22.10. 0:30 1(1800m) 6(2100m) 8(2700m)
Di, 22.10. 0:00 1(1140m) 7(2100m) 8(2700m)
Mo, 21.10. 23:30 2(1140m) 8(2400m) 8(3600m)
Ortszeit Stationsdruck (hPa) Tendenz (hPa in 3 Std.)
Di, 22.10. 2:00 916 + 0,4
Mo, 21.10. 20:00 915 + 1,3
Mo, 21.10. 14:00 913 + 1,2
Mo, 21.10. 8:00 910 + 1,8
Mo, 21.10. 2:00 908 + 1,9
So, 20.10. 20:00 906 + 1,5
So, 20.10. 14:00 905 - 0,5
So, 20.10. 8:00 904 + 0,9
Ortszeit Stationsdruck (hPa) Tendenz (hPa in 3 Std.)
Di, 22.10. 2:30 917 + 0,2
Di, 22.10. 2:20 917 keine Meldung
Di, 22.10. 2:10 917 keine Meldung
Di, 22.10. 2:00 916 + 0,4
Di, 22.10. 1:40 916 keine Meldung
Di, 22.10. 1:30 916 + 0,6
Di, 22.10. 1:00 916 + 0,5
Di, 22.10. 0:30 916 + 0,8
Di, 22.10. 0:00 916 + 0,9
Mo, 21.10. 23:30 916 + 0,9
Ortszeit Schneehöhe (cm)
Di, 22.10. 2:00 0
Mo, 21.10. 20:00 0
Mo, 21.10. 14:00 0
Mo, 21.10. 8:00 0
Mo, 21.10. 2:00 0
So, 20.10. 20:00 0
So, 20.10. 14:00 0
So, 20.10. 8:00 0
Ortszeit Schneehöhe (cm)
Di, 22.10. 2:30 -
Di, 22.10. 2:20 0
Di, 22.10. 2:10 0
Di, 22.10. 2:00 0
Di, 22.10. 1:40 0
Di, 22.10. 1:30 0
Di, 22.10. 1:00 0
Di, 22.10. 0:30 0
Di, 22.10. 0:00 0
Mo, 21.10. 23:30 0
Link zu dieser Seite / Seite empfehlen

Das Wetter in ...